Main page
METAR-TAF:

METAR-TAF

Airports :

Lomé–Tokoin International Airport

Lomé, Togo

latitude: 06-10N, longitude: 001-15E, elevation: 20 m

Current weather observation

The report was made 45 minutes ago, at 20:00 UTC
Wind 7 kt from the South/Southwest, varying between South and West/Southwest
Temperature 25°C
Humidity 89%
Pressure 1015 hPa
Visibility 10 km or more
Few clouds at a height of 1000 ft
Scattered clouds at a height of 3000 ft

METAR: DXXX 222000Z 21007KT 180V240 9999 FEW010 SCT030 25/23 Q1015 NOSIG

Time: 20:45 (20:45 UTC)

Forecast

The report was made 3 hours and 45 minutes ago, at 17:00 UTC
Forecast valid from 22 at 18 UTC to 23 at 24 UTC
Wind 10 kt from the South/Southwest
Visibility 10 km or more
Few clouds at a height of 1300 ft
Becoming
from 22 at 22 UTC to 22 at 24 UTC
Wind 5 kt from the West
Becoming
from 23 at 08 UTC to 23 at 10 UTC
Wind 12 kt from the South/Southwest

TAF: DXXX 221700Z 2218/2324 20010KT 9999 FEW013 BECMG 2222/2224 26005KT BECMG 2308/2310 20012KT

Weather observations and forecasts of more than 4000 airports (METAR and TAF reports).

The available stations are represented by yellow and red dots on the map.

Hover mouse over dot to see the name of the station.

Then click to see weather observations and forecasts.

To change the map : click on the green buttons with a black cross to zoom in, on the green button with a dash to zoom out, or on the green arrows for adjacent maps.


METAR-TAF: